New Salem, North Carolina
Current Conditions -  °F | °C
As of 8:15 PM on Tuesday 27 Jan 2015 (Local Time) from KHBI Reporting Station
Clear Clear  
Wind Chill: 33°   Ceiling: Unl
Heat Index: 37°   Visibility: 10mi
Dew Point:   Wind: 6mph
Humidity: 30%   Direction: 310°NW
Pressure: 29.96"   Gusts: NA
Location:  35.8558°N, 79.7985°W
Report Text: KHBI 280115Z AUTO 31005KT 10SM CLR 03/M13 A2996 RMK AO2 T00301132
Loading
Personal Weather Stations






























Interactive Weather Map New forecast layout! Learn more

10-Day Weather Forecast

Advertisements
Track Severe Weather on mobile